sensor_id;sensor_type;location;lat;lon;timestamp;P1;durP1;ratioP1;P2;durP2;ratioP2
51913;SDS011;37940;53.002;6.930;2022-11-30T00:01:18;91.22;;;33.13;;
51913;SDS011;37940;53.002;6.930;2022-11-30T00:03:46;94.50;;;33.85;;
51913;SDS011;37940;53.002;6.930;2022-11-30T00:06:13;106.47;;;34.65;;
51913;SDS011;37940;53.002;6.930;2022-11-30T00:08:40;94.45;;;34.03;;
51913;SDS011;37940;53.002;6.930;2022-11-30T00:11:10;96.13;;;34.20;;
51913;SDS011;37940;53.002;6.930;2022-11-30T00:13:37;82.43;;;31.55;;
51913;SDS011;37940;53.002;6.930;2022-11-30T00:16:03;79.63;;;31.77;;
51913;SDS011;37940;53.002;6.930;2022-11-30T00:18:29;69.85;;;30.73;;
51913;SDS011;37940;53.002;6.930;2022-11-30T00:21:03;63.75;;;27.77;;
51913;SDS011;37940;53.002;6.930;2022-11-30T00:23:33;75.03;;;30.30;;
51913;SDS011;37940;53.002;6.930;2022-11-30T00:26:00;64.63;;;28.42;;
51913;SDS011;37940;53.002;6.930;2022-11-30T00:28:27;60.30;;;29.10;;
51913;SDS011;37940;53.002;6.930;2022-11-30T00:30:58;74.82;;;30.42;;
51913;SDS011;37940;53.002;6.930;2022-11-30T00:33:25;62.25;;;28.15;;
51913;SDS011;37940;53.002;6.930;2022-11-30T00:35:55;64.30;;;29.60;;
51913;SDS011;37940;53.002;6.930;2022-11-30T00:38:25;66.22;;;30.00;;
51913;SDS011;37940;53.002;6.930;2022-11-30T00:40:51;62.75;;;28.90;;
51913;SDS011;37940;53.002;6.930;2022-11-30T00:43:17;61.22;;;28.65;;
51913;SDS011;37940;53.002;6.930;2022-11-30T00:45:42;65.13;;;29.88;;
51913;SDS011;37940;53.002;6.930;2022-11-30T00:48:08;61.53;;;29.25;;
51913;SDS011;37940;53.002;6.930;2022-11-30T00:50:34;63.83;;;31.10;;
51913;SDS011;37940;53.002;6.930;2022-11-30T00:52:59;64.15;;;29.40;;
51913;SDS011;37940;53.002;6.930;2022-11-30T00:55:25;60.08;;;28.73;;
51913;SDS011;37940;53.002;6.930;2022-11-30T00:57:51;55.72;;;28.05;;
51913;SDS011;37940;53.002;6.930;2022-11-30T01:00:17;56.05;;;27.63;;
51913;SDS011;37940;53.002;6.930;2022-11-30T01:02:43;51.88;;;27.60;;
51913;SDS011;37940;53.002;6.930;2022-11-30T01:05:10;49.00;;;26.02;;
51913;SDS011;37940;53.002;6.930;2022-11-30T01:07:35;50.60;;;27.25;;
51913;SDS011;37940;53.002;6.930;2022-11-30T01:10:01;51.10;;;26.20;;
51913;SDS011;37940;53.002;6.930;2022-11-30T01:12:27;50.75;;;25.88;;
51913;SDS011;37940;53.002;6.930;2022-11-30T01:14:53;48.20;;;25.00;;
51913;SDS011;37940;53.002;6.930;2022-11-30T01:17:19;43.50;;;23.42;;
51913;SDS011;37940;53.002;6.930;2022-11-30T01:19:44;47.38;;;24.20;;
51913;SDS011;37940;53.002;6.930;2022-11-30T01:22:10;46.83;;;23.83;;
51913;SDS011;37940;53.002;6.930;2022-11-30T01:24:36;45.35;;;24.60;;
51913;SDS011;37940;53.002;6.930;2022-11-30T01:27:01;44.15;;;24.98;;
51913;SDS011;37940;53.002;6.930;2022-11-30T01:29:27;45.97;;;25.05;;
51913;SDS011;37940;53.002;6.930;2022-11-30T01:31:53;48.10;;;25.67;;
51913;SDS011;37940;53.002;6.930;2022-11-30T01:34:19;47.30;;;25.50;;
51913;SDS011;37940;53.002;6.930;2022-11-30T01:36:45;43.33;;;23.55;;
51913;SDS011;37940;53.002;6.930;2022-11-30T01:39:12;46.60;;;24.80;;
51913;SDS011;37940;53.002;6.930;2022-11-30T01:41:38;49.88;;;25.35;;
51913;SDS011;37940;53.002;6.930;2022-11-30T01:49:28;54.85;;;26.15;;
51913;SDS011;37940;53.002;6.930;2022-11-30T01:51:58;46.72;;;24.58;;
51913;SDS011;37940;53.002;6.930;2022-11-30T01:54:37;52.75;;;25.55;;
51913;SDS011;37940;53.002;6.930;2022-11-30T01:57:21;54.60;;;26.77;;
51913;SDS011;37940;53.002;6.930;2022-11-30T01:59:54;46.35;;;23.88;;
51913;SDS011;37940;53.002;6.930;2022-11-30T02:02:25;42.38;;;22.67;;
51913;SDS011;37940;53.002;6.930;2022-11-30T02:05:07;49.70;;;25.20;;
51913;SDS011;37940;53.002;6.930;2022-11-30T02:07:34;46.38;;;25.10;;
51913;SDS011;37940;53.002;6.930;2022-11-30T02:09:59;48.28;;;24.75;;
51913;SDS011;37940;53.002;6.930;2022-11-30T02:12:28;53.28;;;27.02;;
51913;SDS011;37940;53.002;6.930;2022-11-30T02:14:57;55.80;;;25.90;;
51913;SDS011;37940;53.002;6.930;2022-11-30T02:17:27;55.72;;;26.63;;
51913;SDS011;37940;53.002;6.930;2022-11-30T02:30:39;54.30;;;27.10;;
51913;SDS011;37940;53.002;6.930;2022-11-30T02:33:12;55.50;;;27.48;;
51913;SDS011;37940;53.002;6.930;2022-11-30T02:35:41;53.22;;;26.60;;
51913;SDS011;37940;53.002;6.930;2022-11-30T02:38:10;61.25;;;28.00;;
51913;SDS011;37940;53.002;6.930;2022-11-30T02:40:37;57.10;;;27.33;;
51913;SDS011;37940;53.002;6.930;2022-11-30T02:43:02;53.88;;;26.70;;
51913;SDS011;37940;53.002;6.930;2022-11-30T02:48:19;55.85;;;27.17;;
51913;SDS011;37940;53.002;6.930;2022-11-30T02:50:53;56.58;;;27.23;;
51913;SDS011;37940;53.002;6.930;2022-11-30T02:53:24;56.17;;;27.05;;
51913;SDS011;37940;53.002;6.930;2022-11-30T02:55:50;52.97;;;25.80;;
51913;SDS011;37940;53.002;6.930;2022-11-30T02:58:17;47.25;;;22.92;;
51913;SDS011;37940;53.002;6.930;2022-11-30T03:00:43;47.08;;;24.02;;
51913;SDS011;37940;53.002;6.930;2022-11-30T03:03:09;56.88;;;26.02;;
51913;SDS011;37940;53.002;6.930;2022-11-30T03:05:35;53.22;;;25.33;;
51913;SDS011;37940;53.002;6.930;2022-11-30T03:08:01;58.90;;;27.08;;
51913;SDS011;37940;53.002;6.930;2022-11-30T03:10:27;54.55;;;25.27;;
51913;SDS011;37940;53.002;6.930;2022-11-30T03:12:56;58.42;;;26.65;;
51913;SDS011;37940;53.002;6.930;2022-11-30T03:15:25;57.35;;;25.70;;
51913;SDS011;37940;53.002;6.930;2022-11-30T03:17:51;55.00;;;26.50;;
51913;SDS011;37940;53.002;6.930;2022-11-30T03:20:17;53.35;;;24.92;;
51913;SDS011;37940;53.002;6.930;2022-11-30T03:22:43;58.05;;;27.10;;
51913;SDS011;37940;53.002;6.930;2022-11-30T03:25:08;50.30;;;24.15;;
51913;SDS011;37940;53.002;6.930;2022-11-30T03:27:34;55.60;;;25.42;;
51913;SDS011;37940;53.002;6.930;2022-11-30T03:30:00;53.53;;;25.50;;
51913;SDS011;37940;53.002;6.930;2022-11-30T03:32:26;51.85;;;23.92;;
51913;SDS011;37940;53.002;6.930;2022-11-30T03:34:52;57.97;;;27.52;;
51913;SDS011;37940;53.002;6.930;2022-11-30T03:37:18;60.78;;;26.42;;
51913;SDS011;37940;53.002;6.930;2022-11-30T03:39:44;58.53;;;26.48;;
51913;SDS011;37940;53.002;6.930;2022-11-30T03:42:09;61.13;;;27.15;;
51913;SDS011;37940;53.002;6.930;2022-11-30T03:44:35;56.03;;;26.52;;
51913;SDS011;37940;53.002;6.930;2022-11-30T03:47:01;48.78;;;23.48;;
51913;SDS011;37940;53.002;6.930;2022-11-30T03:49:26;51.53;;;24.30;;
51913;SDS011;37940;53.002;6.930;2022-11-30T03:51:52;48.72;;;23.13;;
51913;SDS011;37940;53.002;6.930;2022-11-30T03:54:18;60.13;;;26.05;;
51913;SDS011;37940;53.002;6.930;2022-11-30T03:56:43;51.00;;;24.70;;
51913;SDS011;37940;53.002;6.930;2022-11-30T03:59:09;56.78;;;26.60;;
51913;SDS011;37940;53.002;6.930;2022-11-30T04:01:35;53.83;;;24.42;;
51913;SDS011;37940;53.002;6.930;2022-11-30T04:04:01;57.65;;;27.15;;
51913;SDS011;37940;53.002;6.930;2022-11-30T04:06:26;58.95;;;26.58;;
51913;SDS011;37940;53.002;6.930;2022-11-30T04:08:52;54.38;;;25.00;;
51913;SDS011;37940;53.002;6.930;2022-11-30T04:11:18;60.05;;;27.50;;
51913;SDS011;37940;53.002;6.930;2022-11-30T04:13:43;62.17;;;26.70;;
51913;SDS011;37940;53.002;6.930;2022-11-30T04:16:09;59.30;;;27.27;;
51913;SDS011;37940;53.002;6.930;2022-11-30T04:18:35;62.22;;;26.92;;
51913;SDS011;37940;53.002;6.930;2022-11-30T04:21:02;63.97;;;27.70;;
51913;SDS011;37940;53.002;6.930;2022-11-30T04:23:29;63.55;;;27.17;;
51913;SDS011;37940;53.002;6.930;2022-11-30T04:25:57;64.15;;;28.67;;
51913;SDS011;37940;53.002;6.930;2022-11-30T04:28:23;54.13;;;26.75;;
51913;SDS011;37940;53.002;6.930;2022-11-30T04:30:48;55.05;;;26.77;;
51913;SDS011;37940;53.002;6.930;2022-11-30T04:33:14;50.38;;;25.17;;
51913;SDS011;37940;53.002;6.930;2022-11-30T04:35:42;54.35;;;26.90;;
51913;SDS011;37940;53.002;6.930;2022-11-30T04:38:18;50.25;;;25.65;;
51913;SDS011;37940;53.002;6.930;2022-11-30T04:40:44;49.17;;;25.77;;
51913;SDS011;37940;53.002;6.930;2022-11-30T04:43:10;49.53;;;25.40;;
51913;SDS011;37940;53.002;6.930;2022-11-30T04:45:37;49.55;;;24.92;;
51913;SDS011;37940;53.002;6.930;2022-11-30T04:48:03;43.55;;;23.25;;
51913;SDS011;37940;53.002;6.930;2022-11-30T04:50:29;42.10;;;23.05;;
51913;SDS011;37940;53.002;6.930;2022-11-30T04:52:56;45.20;;;25.00;;
51913;SDS011;37940;53.002;6.930;2022-11-30T04:55:22;42.50;;;23.02;;
51913;SDS011;37940;53.002;6.930;2022-11-30T04:57:48;45.58;;;24.60;;
51913;SDS011;37940;53.002;6.930;2022-11-30T05:00:14;44.83;;;24.23;;
51913;SDS011;37940;53.002;6.930;2022-11-30T05:02:41;44.90;;;24.05;;
51913;SDS011;37940;53.002;6.930;2022-11-30T05:05:07;43.25;;;24.15;;
51913;SDS011;37940;53.002;6.930;2022-11-30T05:07:33;44.03;;;25.02;;
51913;SDS011;37940;53.002;6.930;2022-11-30T05:09:59;46.70;;;24.73;;
51913;SDS011;37940;53.002;6.930;2022-11-30T05:12:25;47.70;;;25.73;;
51913;SDS011;37940;53.002;6.930;2022-11-30T05:14:51;46.45;;;23.80;;
51913;SDS011;37940;53.002;6.930;2022-11-30T05:17:16;44.88;;;24.80;;
51913;SDS011;37940;53.002;6.930;2022-11-30T05:19:42;49.03;;;24.73;;
51913;SDS011;37940;53.002;6.930;2022-11-30T05:22:08;46.55;;;24.85;;
51913;SDS011;37940;53.002;6.930;2022-11-30T05:24:33;43.20;;;23.83;;
51913;SDS011;37940;53.002;6.930;2022-11-30T05:26:59;47.15;;;25.05;;
51913;SDS011;37940;53.002;6.930;2022-11-30T05:29:25;44.88;;;24.63;;
51913;SDS011;37940;53.002;6.930;2022-11-30T05:31:50;47.70;;;24.65;;
51913;SDS011;37940;53.002;6.930;2022-11-30T05:34:16;43.72;;;24.30;;
51913;SDS011;37940;53.002;6.930;2022-11-30T05:36:42;48.83;;;25.50;;
51913;SDS011;37940;53.002;6.930;2022-11-30T05:39:08;46.85;;;24.05;;
51913;SDS011;37940;53.002;6.930;2022-11-30T05:41:33;45.67;;;24.55;;
51913;SDS011;37940;53.002;6.930;2022-11-30T05:43:59;48.30;;;24.88;;
51913;SDS011;37940;53.002;6.930;2022-11-30T05:46:25;43.20;;;24.35;;
51913;SDS011;37940;53.002;6.930;2022-11-30T05:48:51;46.13;;;24.80;;
51913;SDS011;37940;53.002;6.930;2022-11-30T05:51:17;44.72;;;24.30;;
51913;SDS011;37940;53.002;6.930;2022-11-30T05:53:43;45.35;;;24.80;;
51913;SDS011;37940;53.002;6.930;2022-11-30T05:56:11;47.42;;;24.73;;
51913;SDS011;37940;53.002;6.930;2022-11-30T05:58:38;42.45;;;23.52;;
51913;SDS011;37940;53.002;6.930;2022-11-30T06:01:05;38.40;;;22.67;;
51913;SDS011;37940;53.002;6.930;2022-11-30T06:03:32;40.85;;;22.13;;
51913;SDS011;37940;53.002;6.930;2022-11-30T06:05:59;34.10;;;20.63;;
51913;SDS011;37940;53.002;6.930;2022-11-30T06:08:25;38.70;;;21.75;;
51913;SDS011;37940;53.002;6.930;2022-11-30T06:10:51;34.60;;;20.70;;
51913;SDS011;37940;53.002;6.930;2022-11-30T06:13:18;34.53;;;19.55;;
51913;SDS011;37940;53.002;6.930;2022-11-30T06:15:44;32.28;;;18.60;;
51913;SDS011;37940;53.002;6.930;2022-11-30T06:18:10;32.28;;;19.30;;
51913;SDS011;37940;53.002;6.930;2022-11-30T06:20:37;32.33;;;19.25;;
51913;SDS011;37940;53.002;6.930;2022-11-30T06:23:03;36.95;;;19.70;;
51913;SDS011;37940;53.002;6.930;2022-11-30T06:25:29;35.13;;;19.63;;
51913;SDS011;37940;53.002;6.930;2022-11-30T06:27:55;38.10;;;19.95;;
51913;SDS011;37940;53.002;6.930;2022-11-30T06:30:21;29.77;;;18.65;;
51913;SDS011;37940;53.002;6.930;2022-11-30T06:32:47;31.90;;;18.52;;
51913;SDS011;37940;53.002;6.930;2022-11-30T06:35:14;33.60;;;18.77;;
51913;SDS011;37940;53.002;6.930;2022-11-30T06:37:40;33.33;;;19.73;;
51913;SDS011;37940;53.002;6.930;2022-11-30T06:40:06;34.30;;;19.48;;
51913;SDS011;37940;53.002;6.930;2022-11-30T06:42:33;34.78;;;19.80;;
51913;SDS011;37940;53.002;6.930;2022-11-30T06:45:00;35.38;;;20.08;;
51913;SDS011;37940;53.002;6.930;2022-11-30T06:47:26;33.90;;;19.67;;
51913;SDS011;37940;53.002;6.930;2022-11-30T06:49:52;33.88;;;20.00;;
51913;SDS011;37940;53.002;6.930;2022-11-30T06:52:18;31.88;;;18.60;;
51913;SDS011;37940;53.002;6.930;2022-11-30T06:54:43;27.70;;;17.48;;
51913;SDS011;37940;53.002;6.930;2022-11-30T06:57:10;25.90;;;15.07;;
51913;SDS011;37940;53.002;6.930;2022-11-30T06:59:35;30.83;;;18.92;;
51913;SDS011;37940;53.002;6.930;2022-11-30T07:02:01;30.20;;;17.50;;
51913;SDS011;37940;53.002;6.930;2022-11-30T07:04:28;28.08;;;18.50;;
51913;SDS011;37940;53.002;6.930;2022-11-30T07:06:53;32.05;;;19.10;;
51913;SDS011;37940;53.002;6.930;2022-11-30T07:09:19;29.35;;;18.38;;
51913;SDS011;37940;53.002;6.930;2022-11-30T07:11:45;32.40;;;17.98;;
51913;SDS011;37940;53.002;6.930;2022-11-30T07:14:11;35.15;;;19.85;;
51913;SDS011;37940;53.002;6.930;2022-11-30T07:16:36;33.88;;;18.38;;
51913;SDS011;37940;53.002;6.930;2022-11-30T07:19:02;36.60;;;20.92;;
51913;SDS011;37940;53.002;6.930;2022-11-30T07:21:28;37.05;;;21.60;;
51913;SDS011;37940;53.002;6.930;2022-11-30T07:23:54;34.28;;;18.90;;
51913;SDS011;37940;53.002;6.930;2022-11-30T07:26:38;35.67;;;19.27;;
51913;SDS011;37940;53.002;6.930;2022-11-30T07:29:03;36.38;;;20.02;;
51913;SDS011;37940;53.002;6.930;2022-11-30T07:31:30;38.10;;;20.02;;
51913;SDS011;37940;53.002;6.930;2022-11-30T07:34:04;30.23;;;17.77;;
51913;SDS011;37940;53.002;6.930;2022-11-30T07:36:31;31.40;;;18.38;;
51913;SDS011;37940;53.002;6.930;2022-11-30T07:38:57;32.28;;;17.95;;
51913;SDS011;37940;53.002;6.930;2022-11-30T07:41:23;27.85;;;16.48;;
51913;SDS011;37940;53.002;6.930;2022-11-30T07:43:49;27.95;;;17.45;;
51913;SDS011;37940;53.002;6.930;2022-11-30T07:46:15;25.92;;;15.80;;
51913;SDS011;37940;53.002;6.930;2022-11-30T07:48:42;26.75;;;16.88;;
51913;SDS011;37940;53.002;6.930;2022-11-30T07:51:12;25.63;;;16.30;;
51913;SDS011;37940;53.002;6.930;2022-11-30T07:53:39;25.13;;;15.50;;
51913;SDS011;37940;53.002;6.930;2022-11-30T07:56:06;23.85;;;16.33;;
51913;SDS011;37940;53.002;6.930;2022-11-30T07:58:33;23.30;;;16.05;;
51913;SDS011;37940;53.002;6.930;2022-11-30T08:01:00;23.88;;;15.57;;
51913;SDS011;37940;53.002;6.930;2022-11-30T08:03:27;23.02;;;15.25;;
51913;SDS011;37940;53.002;6.930;2022-11-30T08:05:57;22.35;;;15.18;;
51913;SDS011;37940;53.002;6.930;2022-11-30T08:08:31;23.10;;;14.75;;
51913;SDS011;37940;53.002;6.930;2022-11-30T08:10:59;22.50;;;15.05;;
51913;SDS011;37940;53.002;6.930;2022-11-30T08:13:25;23.50;;;14.65;;
51913;SDS011;37940;53.002;6.930;2022-11-30T08:15:52;23.02;;;15.00;;
51913;SDS011;37940;53.002;6.930;2022-11-30T08:18:18;23.00;;;14.82;;
51913;SDS011;37940;53.002;6.930;2022-11-30T08:20:44;22.95;;;15.18;;
51913;SDS011;37940;53.002;6.930;2022-11-30T08:23:10;25.55;;;15.75;;
51913;SDS011;37940;53.002;6.930;2022-11-30T08:25:36;23.35;;;14.75;;
51913;SDS011;37940;53.002;6.930;2022-11-30T08:28:02;26.63;;;17.48;;
51913;SDS011;37940;53.002;6.930;2022-11-30T08:30:28;26.92;;;17.10;;
51913;SDS011;37940;53.002;6.930;2022-11-30T08:32:55;25.23;;;16.48;;
51913;SDS011;37940;53.002;6.930;2022-11-30T08:35:20;26.20;;;16.60;;
51913;SDS011;37940;53.002;6.930;2022-11-30T08:37:46;28.95;;;17.50;;
51913;SDS011;37940;53.002;6.930;2022-11-30T08:40:12;29.67;;;17.85;;
51913;SDS011;37940;53.002;6.930;2022-11-30T08:42:38;32.80;;;19.42;;
51913;SDS011;37940;53.002;6.930;2022-11-30T08:45:04;32.92;;;18.80;;
51913;SDS011;37940;53.002;6.930;2022-11-30T08:47:31;34.53;;;19.50;;
51913;SDS011;37940;53.002;6.930;2022-11-30T08:49:56;34.03;;;19.63;;
51913;SDS011;37940;53.002;6.930;2022-11-30T08:52:22;34.30;;;18.13;;
51913;SDS011;37940;53.002;6.930;2022-11-30T08:54:48;33.28;;;18.65;;
51913;SDS011;37940;53.002;6.930;2022-11-30T08:57:15;34.60;;;20.02;;
51913;SDS011;37940;53.002;6.930;2022-11-30T08:59:43;35.05;;;18.95;;
51913;SDS011;37940;53.002;6.930;2022-11-30T09:02:10;34.55;;;20.45;;
51913;SDS011;37940;53.002;6.930;2022-11-30T09:04:37;39.78;;;20.80;;
51913;SDS011;37940;53.002;6.930;2022-11-30T09:07:02;42.50;;;20.70;;
51913;SDS011;37940;53.002;6.930;2022-11-30T09:09:28;35.58;;;19.33;;
51913;SDS011;37940;53.002;6.930;2022-11-30T09:11:54;35.08;;;20.00;;
51913;SDS011;37940;53.002;6.930;2022-11-30T09:14:20;36.50;;;20.13;;
51913;SDS011;37940;53.002;6.930;2022-11-30T09:16:45;38.63;;;20.25;;
51913;SDS011;37940;53.002;6.930;2022-11-30T09:19:11;30.23;;;17.45;;
51913;SDS011;37940;53.002;6.930;2022-11-30T09:21:37;34.03;;;19.40;;
51913;SDS011;37940;53.002;6.930;2022-11-30T09:24:03;36.78;;;19.70;;
51913;SDS011;37940;53.002;6.930;2022-11-30T09:26:29;35.58;;;20.50;;
51913;SDS011;37940;53.002;6.930;2022-11-30T09:28:54;38.13;;;20.25;;
51913;SDS011;37940;53.002;6.930;2022-11-30T09:31:24;34.40;;;20.20;;
51913;SDS011;37940;53.002;6.930;2022-11-30T09:33:51;30.77;;;18.27;;
51913;SDS011;37940;53.002;6.930;2022-11-30T09:36:19;29.40;;;17.58;;
51913;SDS011;37940;53.002;6.930;2022-11-30T09:38:46;33.50;;;19.65;;
51913;SDS011;37940;53.002;6.930;2022-11-30T09:44:12;32.97;;;19.33;;
51913;SDS011;37940;53.002;6.930;2022-11-30T09:49:33;32.78;;;19.20;;
51913;SDS011;37940;53.002;6.930;2022-11-30T09:52:15;32.97;;;18.95;;
51913;SDS011;37940;53.002;6.930;2022-11-30T09:54:50;31.88;;;17.80;;
51913;SDS011;37940;53.002;6.930;2022-11-30T09:59:54;29.42;;;18.02;;
51913;SDS011;37940;53.002;6.930;2022-11-30T10:02:27;33.50;;;19.30;;
51913;SDS011;37940;53.002;6.930;2022-11-30T10:04:54;33.70;;;20.55;;
51913;SDS011;37940;53.002;6.930;2022-11-30T10:23:04;49.45;;;23.73;;
51913;SDS011;37940;53.002;6.930;2022-11-30T10:25:55;43.72;;;22.35;;
51913;SDS011;37940;53.002;6.930;2022-11-30T10:28:27;39.50;;;22.85;;
51913;SDS011;37940;53.002;6.930;2022-11-30T10:30:55;39.30;;;21.42;;
51913;SDS011;37940;53.002;6.930;2022-11-30T10:33:26;42.45;;;22.65;;
51913;SDS011;37940;53.002;6.930;2022-11-30T10:35:59;39.13;;;21.83;;
51913;SDS011;37940;53.002;6.930;2022-11-30T10:38:32;37.17;;;21.73;;
51913;SDS011;37940;53.002;6.930;2022-11-30T10:43:36;37.47;;;22.13;;
51913;SDS011;37940;53.002;6.930;2022-11-30T10:46:05;41.83;;;22.17;;
51913;SDS011;37940;53.002;6.930;2022-11-30T10:48:42;38.58;;;20.23;;
51913;SDS011;37940;53.002;6.930;2022-11-30T10:51:14;34.78;;;20.45;;
51913;SDS011;37940;53.002;6.930;2022-11-30T10:53:41;34.60;;;20.15;;
51913;SDS011;37940;53.002;6.930;2022-11-30T10:56:13;41.03;;;22.70;;
51913;SDS011;37940;53.002;6.930;2022-11-30T10:58:49;44.28;;;23.30;;
51913;SDS011;37940;53.002;6.930;2022-11-30T11:01:35;42.83;;;24.10;;
51913;SDS011;37940;53.002;6.930;2022-11-30T11:06:55;42.15;;;22.67;;
51913;SDS011;37940;53.002;6.930;2022-11-30T11:11:53;47.45;;;23.63;;
51913;SDS011;37940;53.002;6.930;2022-11-30T11:14:21;48.58;;;23.67;;
51913;SDS011;37940;53.002;6.930;2022-11-30T11:16:49;44.13;;;23.25;;
51913;SDS011;37940;53.002;6.930;2022-11-30T11:19:40;45.35;;;23.17;;
51913;SDS011;37940;53.002;6.930;2022-11-30T11:22:40;43.53;;;22.75;;
51913;SDS011;37940;53.002;6.930;2022-11-30T11:25:08;48.27;;;23.63;;
51913;SDS011;37940;53.002;6.930;2022-11-30T11:27:43;47.72;;;24.40;;
51913;SDS011;37940;53.002;6.930;2022-11-30T11:32:57;50.75;;;25.63;;
51913;SDS011;37940;53.002;6.930;2022-11-30T11:35:36;51.87;;;26.63;;
51913;SDS011;37940;53.002;6.930;2022-11-30T11:41:05;56.72;;;26.35;;
51913;SDS011;37940;53.002;6.930;2022-11-30T11:43:57;62.72;;;30.00;;
51913;SDS011;37940;53.002;6.930;2022-11-30T11:49:23;64.82;;;29.60;;
51913;SDS011;37940;53.002;6.930;2022-11-30T11:52:01;63.13;;;28.70;;
51913;SDS011;37940;53.002;6.930;2022-11-30T11:54:39;59.65;;;26.67;;
51913;SDS011;37940;53.002;6.930;2022-11-30T11:57:20;78.10;;;33.00;;
51913;SDS011;37940;53.002;6.930;2022-11-30T12:00:02;77.38;;;33.10;;
51913;SDS011;37940;53.002;6.930;2022-11-30T12:02:45;73.30;;;30.80;;
51913;SDS011;37940;53.002;6.930;2022-11-30T12:08:06;97.70;;;36.42;;
51913;SDS011;37940;53.002;6.930;2022-11-30T12:11:23;92.18;;;37.47;;
51913;SDS011;37940;53.002;6.930;2022-11-30T12:13:44;104.28;;;37.55;;
51913;SDS011;37940;53.002;6.930;2022-11-30T12:21:27;106.88;;;39.03;;
51913;SDS011;37940;53.002;6.930;2022-11-30T12:24:28;113.28;;;39.08;;
51913;SDS011;37940;53.002;6.930;2022-11-30T12:30:11;103.75;;;39.05;;
51913;SDS011;37940;53.002;6.930;2022-11-30T12:35:33;98.85;;;37.38;;
51913;SDS011;37940;53.002;6.930;2022-11-30T12:38:19;90.03;;;37.60;;
51913;SDS011;37940;53.002;6.930;2022-11-30T12:46:33;63.03;;;32.10;;
51913;SDS011;37940;53.002;6.930;2022-11-30T12:49:10;62.03;;;32.03;;
51913;SDS011;37940;53.002;6.930;2022-11-30T12:51:44;65.57;;;32.05;;
51913;SDS011;37940;53.002;6.930;2022-11-30T13:00:18;60.70;;;32.13;;
51913;SDS011;37940;53.002;6.930;2022-11-30T13:02:47;52.80;;;27.77;;
51913;SDS011;37940;53.002;6.930;2022-11-30T13:08:18;64.40;;;31.25;;
51913;SDS011;37940;53.002;6.930;2022-11-30T13:10:54;68.72;;;33.47;;
51913;SDS011;37940;53.002;6.930;2022-11-30T13:13:24;70.80;;;34.38;;
51913;SDS011;37940;53.002;6.930;2022-11-30T13:15:54;65.60;;;33.38;;
51913;SDS011;37940;53.002;6.930;2022-11-30T13:18:21;63.90;;;34.13;;
51913;SDS011;37940;53.002;6.930;2022-11-30T13:23:40;66.70;;;34.00;;
51913;SDS011;37940;53.002;6.930;2022-11-30T13:34:22;64.32;;;33.58;;
51913;SDS011;37940;53.002;6.930;2022-11-30T13:36:49;62.55;;;32.15;;
51913;SDS011;37940;53.002;6.930;2022-11-30T13:39:23;68.28;;;35.35;;
51913;SDS011;37940;53.002;6.930;2022-11-30T13:44:37;62.70;;;33.58;;
51913;SDS011;37940;53.002;6.930;2022-11-30T13:49:41;72.28;;;36.22;;
51913;SDS011;37940;53.002;6.930;2022-11-30T13:52:10;73.90;;;36.83;;
51913;SDS011;37940;53.002;6.930;2022-11-30T13:54:46;74.95;;;37.45;;
51913;SDS011;37940;53.002;6.930;2022-11-30T13:59:53;71.68;;;34.08;;
51913;SDS011;37940;53.002;6.930;2022-11-30T14:05:33;72.03;;;35.63;;
51913;SDS011;37940;53.002;6.930;2022-11-30T14:10:30;69.43;;;35.38;;
51913;SDS011;37940;53.002;6.930;2022-11-30T14:12:59;66.60;;;35.13;;
51913;SDS011;37940;53.002;6.930;2022-11-30T14:25:58;60.92;;;31.27;;
51913;SDS011;37940;53.002;6.930;2022-11-30T14:28:34;68.50;;;33.85;;
51913;SDS011;37940;53.002;6.930;2022-11-30T14:31:01;72.03;;;33.70;;
51913;SDS011;37940;53.002;6.930;2022-11-30T14:36:38;66.95;;;33.95;;
51913;SDS011;37940;53.002;6.930;2022-11-30T14:39:23;73.88;;;34.67;;
51913;SDS011;37940;53.002;6.930;2022-11-30T14:41:51;70.25;;;34.33;;
51913;SDS011;37940;53.002;6.930;2022-11-30T14:44:17;69.40;;;33.80;;
51913;SDS011;37940;53.002;6.930;2022-11-30T14:46:43;72.32;;;35.15;;
51913;SDS011;37940;53.002;6.930;2022-11-30T14:51:46;75.88;;;35.72;;
51913;SDS011;37940;53.002;6.930;2022-11-30T14:54:34;70.03;;;35.28;;
51913;SDS011;37940;53.002;6.930;2022-11-30T14:57:15;75.57;;;36.55;;
51913;SDS011;37940;53.002;6.930;2022-11-30T14:59:56;77.40;;;36.67;;
51913;SDS011;37940;53.002;6.930;2022-11-30T15:02:25;77.00;;;37.15;;
51913;SDS011;37940;53.002;6.930;2022-11-30T15:04:59;79.18;;;37.42;;
51913;SDS011;37940;53.002;6.930;2022-11-30T15:07:26;83.20;;;38.67;;
51913;SDS011;37940;53.002;6.930;2022-11-30T15:09:56;78.72;;;38.10;;
51913;SDS011;37940;53.002;6.930;2022-11-30T15:12:34;83.43;;;39.72;;
51913;SDS011;37940;53.002;6.930;2022-11-30T15:20:41;89.35;;;40.22;;
51913;SDS011;37940;53.002;6.930;2022-11-30T15:23:12;89.05;;;39.40;;
51913;SDS011;37940;53.002;6.930;2022-11-30T15:25:40;79.18;;;38.40;;
51913;SDS011;37940;53.002;6.930;2022-11-30T15:28:09;81.55;;;37.42;;
51913;SDS011;37940;53.002;6.930;2022-11-30T15:30:39;78.22;;;37.70;;
51913;SDS011;37940;53.002;6.930;2022-11-30T15:33:32;68.75;;;32.22;;
51913;SDS011;37940;53.002;6.930;2022-11-30T15:35:57;81.53;;;38.90;;
51913;SDS011;37940;53.002;6.930;2022-11-30T15:38:26;84.20;;;37.88;;
51913;SDS011;37940;53.002;6.930;2022-11-30T15:40:59;85.28;;;38.13;;
51913;SDS011;37940;53.002;6.930;2022-11-30T15:43:32;87.32;;;38.20;;
51913;SDS011;37940;53.002;6.930;2022-11-30T15:46:00;85.30;;;38.08;;
51913;SDS011;37940;53.002;6.930;2022-11-30T15:48:34;82.32;;;36.60;;
51913;SDS011;37940;53.002;6.930;2022-11-30T15:51:05;75.80;;;36.33;;
51913;SDS011;37940;53.002;6.930;2022-11-30T15:53:32;78.60;;;35.05;;
51913;SDS011;37940;53.002;6.930;2022-11-30T15:56:24;82.60;;;37.85;;
51913;SDS011;37940;53.002;6.930;2022-11-30T15:58:59;86.18;;;37.53;;
51913;SDS011;37940;53.002;6.930;2022-11-30T16:01:50;90.45;;;38.63;;
51913;SDS011;37940;53.002;6.930;2022-11-30T16:04:25;80.65;;;37.35;;
51913;SDS011;37940;53.002;6.930;2022-11-30T16:07:16;93.63;;;38.70;;
51913;SDS011;37940;53.002;6.930;2022-11-30T16:09:43;83.82;;;38.05;;
51913;SDS011;37940;53.002;6.930;2022-11-30T16:12:12;87.55;;;37.80;;
51913;SDS011;37940;53.002;6.930;2022-11-30T16:14:51;89.47;;;37.25;;
51913;SDS011;37940;53.002;6.930;2022-11-30T16:17:17;86.75;;;39.28;;
51913;SDS011;37940;53.002;6.930;2022-11-30T16:19:43;88.60;;;38.28;;
51913;SDS011;37940;53.002;6.930;2022-11-30T16:22:10;85.93;;;38.50;;
51913;SDS011;37940;53.002;6.930;2022-11-30T16:24:37;90.63;;;38.35;;
51913;SDS011;37940;53.002;6.930;2022-11-30T16:27:10;82.75;;;36.17;;
51913;SDS011;37940;53.002;6.930;2022-11-30T16:29:41;81.07;;;38.85;;
51913;SDS011;37940;53.002;6.930;2022-11-30T16:32:11;85.55;;;38.05;;
51913;SDS011;37940;53.002;6.930;2022-11-30T16:34:37;87.03;;;38.65;;
51913;SDS011;37940;53.002;6.930;2022-11-30T16:37:04;79.93;;;36.25;;
51913;SDS011;37940;53.002;6.930;2022-11-30T16:39:30;80.40;;;37.88;;
51913;SDS011;37940;53.002;6.930;2022-11-30T16:41:56;83.53;;;36.50;;
51913;SDS011;37940;53.002;6.930;2022-11-30T16:44:22;82.38;;;36.67;;
51913;SDS011;37940;53.002;6.930;2022-11-30T16:46:48;77.47;;;35.83;;